Lanedale, Iowa
Current Conditions -  °F | °C
As of 9:55 PM on Wednesday 22 Oct 2014 (Local Time) from KCIN Reporting Station
Moderate Rain Moderate Rain  
Wind Chill: 59°   Ceiling: 4000
Heat Index: 59°   Visibility: 3mi
Dew Point: 52°   Wind: 9mph
Humidity: 77%   Direction: 240°WSW
Pressure: 30.12"   Gusts: 15mph
Location:  42.385°N, 94.6304°W
Report Text: KCIN 230255Z AUTO 24008G13KT 3SM RA FEW003 FEW009 OVC040 15/11 A3012 RMK AO2 P0003
Loading
Personal Weather Stations






























Interactive Weather Map
Tropical Storm Tracking
New forecast layout! Learn more

10-Day Weather Forecast

Advertisements
Track Severe Weather on mobile